Time;durP1;ratioP1;P1;durP2;ratioP2;P2;SDS_P1;SDS_P2;PMS_P1;PMS_P2;Temp;Humidity;BMP_temperature;BMP_pressure;BME280_temperature;BME280_humidity;BME280_pressure;Samples;Min_cycle;Max_cycle;Signal;HPM_P1;HPM_P2
2022/10/19 00:01:37;;;;;;;6.70;2.90;;;11.60;99.90;;;11.76;92.22;102065.47;4955350;29;20406;-70
2022/10/19 00:04:06;;;;;;;12.33;3.57;;;11.70;99.90;;;11.80;91.16;102070.56;4955516;29;20498;-70
2022/10/19 00:06:38;;;;;;;7.73;3.20;;;11.70;99.90;;;11.85;90.25;102069.00;4955315;28;20491;-70
2022/10/19 00:09:10;;;;;;;5.27;2.07;;;11.70;99.90;;;11.76;90.58;102060.06;4954695;29;20421;-70
2022/10/19 00:11:43;;;;;;;7.80;2.07;;;11.70;99.90;;;11.74;91.11;102069.41;4955903;29;20450;-70
2022/10/19 00:14:15;;;;;;;4.43;2.53;;;11.70;99.90;;;11.72;91.96;102064.16;4950630;29;20447;-70
2022/10/19 00:16:47;;;;;;;3.43;2.40;;;11.60;99.90;;;11.79;91.40;102058.00;4930109;29;20885;-70
2022/10/19 00:19:21;;;;;;;7.83;2.80;;;11.70;99.90;;;11.74;90.72;102059.41;4930526;29;20432;-71
2022/10/19 00:21:52;;;;;;;5.60;2.80;;;11.70;99.90;;;11.66;90.65;102059.44;4935462;29;20399;-70
2022/10/19 00:24:22;;;;;;;7.13;3.83;;;11.60;99.90;;;11.71;90.70;102057.00;4953839;29;20968;-70
2022/10/19 00:26:50;;;;;;;14.30;3.37;;;11.60;99.90;;;11.75;90.16;102063.81;4953009;28;20465;-70
2022/10/19 00:29:19;;;;;;;5.13;2.40;;;11.60;99.90;;;11.75;91.94;102063.81;4942189;29;20742;-72
2022/10/19 00:31:50;;;;;;;5.17;2.90;;;11.60;99.90;;;11.80;89.74;102070.56;4953567;29;20522;-70
2022/10/19 00:34:19;;;;;;;14.70;3.93;;;11.70;99.90;;;11.74;90.84;102074.81;4930476;29;20517;-70
2022/10/19 00:36:48;;;;;;;8.43;1.90;;;11.70;99.90;;;11.67;90.16;102077.38;4941452;28;20531;-70
2022/10/19 00:39:19;;;;;;;7.93;2.07;;;11.60;99.90;;;11.80;88.79;102067.84;4953740;29;20415;-69
2022/10/19 00:41:49;;;;;;;10.60;2.80;;;11.60;99.90;;;11.72;89.25;102075.00;4937949;29;20523;-70
2022/10/19 00:45:00;;;;;;;4.87;2.60;;;11.60;99.90;;;11.84;88.68;102077.28;4955496;29;20491;-71
2022/10/19 00:47:30;;;;;;;4.23;2.23;;;11.70;99.90;;;11.75;88.24;102071.94;4955295;29;20431;-71
2022/10/19 00:50:00;;;;;;;6.97;2.37;;;11.60;99.90;;;11.77;88.93;102072.59;4960802;29;20783;-71
2022/10/19 00:52:30;;;;;;;9.63;3.10;;;11.70;99.90;;;11.74;88.04;102078.38;4957875;29;20802;-71
2022/10/19 00:55:01;;;;;;;3.40;2.50;;;11.70;99.90;;;11.67;87.63;102074.66;4950091;28;20456;-70
2022/10/19 00:57:31;;;;;;;9.27;3.10;;;11.60;99.90;;;11.59;87.86;102080.16;4959284;28;20893;-70
2022/10/19 01:00:06;;;;;;;3.70;2.40;;;11.50;99.90;;;11.61;88.17;102080.84;4948947;29;20446;-69
2022/10/19 01:02:35;;;;;;;16.43;2.90;;;11.50;99.90;;;11.61;88.32;102072.69;4953279;29;20721;-70
2022/10/19 01:05:07;;;;;;;15.43;4.00;;;11.50;99.90;;;11.72;86.68;102075.00;4951542;29;20444;-69
2022/10/19 01:07:36;;;;;;;6.93;2.43;;;11.60;99.90;;;11.74;87.25;102066.69;4955470;28;20435;-70
2022/10/19 01:10:08;;;;;;;7.90;2.27;;;11.60;99.90;;;11.75;86.58;102065.69;4958109;28;20440;-70
2022/10/19 01:13:06;;;;;;;5.63;2.07;;;11.60;99.90;;;11.68;87.13;102062.81;4959351;28;20919;-70
2022/10/19 01:15:48;;;;;;;7.00;1.97;;;11.60;99.90;;;11.75;85.35;102047.53;4953827;28;20426;-70
2022/10/19 01:18:28;;;;;;;5.20;1.70;;;11.60;99.90;;;11.82;82.99;102049.50;4954276;29;20895;-70
2022/10/19 01:21:21;;;;;;;6.30;1.77;;;11.70;41.30;;;11.76;83.61;102041.06;4953142;29;20446;-70
2022/10/19 01:24:43;;;;;;;2.90;1.90;;;11.70;99.90;;;11.94;81.42;102050.75;4948289;29;20518;-70
2022/10/19 01:27:58;;;;;;;3.60;1.93;;;11.70;99.90;;;11.97;81.40;102039.53;4947865;29;20502;-70
2022/10/19 01:30:49;;;;;;;4.03;2.80;;;11.80;98.00;;;11.88;80.70;102041.47;4953529;29;20434;-70
2022/10/19 01:33:36;;;;;;;4.80;1.77;;;11.80;3.20;;;11.96;78.95;102048.69;4949720;29;20469;-70
2022/10/19 01:36:21;;;;;;;2.23;1.57;;;11.80;1.00;;;11.86;79.77;102048.94;4940929;28;20452;-71
2022/10/19 01:39:01;;;;;;;5.33;1.67;;;11.80;1.00;;;11.97;78.68;102039.53;4947682;29;20402;-70
2022/10/19 01:41:43;;;;;;;5.23;1.73;;;11.80;1.00;;;11.93;79.03;102040.94;4967213;28;20809;-70
2022/10/19 01:44:19;;;;;;;3.20;1.27;;;11.80;1.00;;;11.83;78.97;102048.47;4952172;29;20412;-71
2022/10/19 01:46:58;;;;;;;1.70;1.30;;;11.80;1.00;;;11.87;78.62;102047.09;4951757;29;20430;-70
2022/10/19 01:49:36;;;;;;;3.27;1.47;;;11.80;1.00;;;11.87;79.24;102045.22;4951531;29;20434;-71
2022/10/19 01:52:09;;;;;;;5.00;1.60;;;11.80;1.00;;;11.83;80.16;102043.91;4947285;29;20406;-69
2022/10/19 01:54:44;;;;;;;6.03;1.87;;;11.80;1.00;;;11.93;80.60;102040.94;4963369;28;20442;-69
2022/10/19 01:57:20;;;;;;;4.90;1.90;;;11.80;1.00;;;11.88;81.13;102041.47;4950837;28;20411;-70
2022/10/19 01:59:49;;;;;;;4.57;1.30;;;11.80;1.00;;;11.83;82.58;102043.91;4949798;29;20409;-71
2022/10/19 02:02:23;;;;;;;8.80;1.77;;;11.80;99.90;;;11.99;82.25;102042.94;4951859;29;20477;-70
2022/10/19 02:04:53;;;;;;;2.53;1.90;;;11.90;99.90;;;11.86;82.86;102037.28;4948171;28;20811;-70
2022/10/19 02:07:25;;;;;;;3.33;1.80;;;11.80;99.90;;;11.84;83.20;102031.19;4951936;28;20447;-71
2022/10/19 02:09:54;;;;;;;4.57;2.43;;;11.80;99.90;;;11.85;83.71;102032.88;4952452;29;20416;-70
2022/10/19 02:12:26;;;;;;;7.40;2.30;;;11.80;99.90;;;11.82;83.74;102033.22;4956584;28;20409;-71
2022/10/19 02:15:02;;;;;;;11.77;3.20;;;11.80;99.90;;;11.86;84.32;102029.16;4934978;29;20442;-71
2022/10/19 02:17:38;;;;;;;7.53;1.70;;;11.80;99.90;;;11.84;85.91;102033.91;4945635;29;20438;-70
2022/10/19 02:20:07;;;;;;;4.10;1.53;;;11.80;1.00;;;11.81;86.40;102035.13;4937929;29;20522;-71
2022/10/19 02:22:37;;;;;;;7.73;2.43;;;11.70;1.00;;;11.71;85.26;102037.22;4960755;28;20442;-71
2022/10/19 02:25:09;;;;;;;8.70;2.07;;;11.60;99.90;;;11.68;85.67;102038.41;4963486;28;20447;-71
2022/10/19 02:27:40;;;;;;;4.90;2.30;;;11.60;99.90;;;11.62;85.65;102033.69;4960207;28;20416;-71
2022/10/19 02:30:13;;;;;;;9.23;1.93;;;11.60;99.90;;;11.66;84.81;102039.63;4955305;29;20446;-70
2022/10/19 02:32:44;;;;;;;5.17;1.90;;;11.60;99.90;;;11.69;84.97;102037.38;4955552;29;20478;-71
2022/10/19 02:35:15;;;;;;;2.03;1.50;;;11.60;99.90;;;11.70;85.88;102038.22;4954882;28;20894;-71
2022/10/19 02:37:44;;;;;;;4.70;1.50;;;11.60;99.90;;;11.71;85.87;102040.72;4960265;28;20948;-70
2022/10/19 02:40:13;;;;;;;2.80;1.70;;;11.60;99.90;;;11.72;85.60;102041.59;4955255;29;20435;-70
2022/10/19 02:42:48;;;;;;;4.03;1.67;;;11.60;99.90;;;11.68;87.27;102040.25;4957886;28;20475;-70
2022/10/19 02:45:25;;;;;;;4.37;1.80;;;11.60;1.00;;;11.68;86.54;102035.69;4961616;28;20491;-70
2022/10/19 02:48:00;;;;;;;7.83;1.60;;;11.50;1.00;;;11.73;86.97;102036.03;4950028;29;20471;-71
2022/10/19 02:50:30;;;;;;;7.53;2.60;;;11.60;1.00;;;11.66;86.42;102039.63;4954875;29;20464;-70
2022/10/19 02:52:59;;;;;;;10.07;2.80;;;11.60;99.90;;;11.64;87.36;102039.78;4956762;28;20432;-70
2022/10/19 02:55:30;;;;;;;2.47;1.93;;;11.60;1.00;;;11.64;87.20;102038.94;4959249;28;20758;-71
2022/10/19 02:57:59;;;;;;;4.00;2.03;;;11.60;1.00;;;11.65;86.07;102036.06;4948463;29;20455;-71
2022/10/19 03:00:27;;;;;;;5.00;2.13;;;11.60;99.90;;;11.66;86.59;102037.75;4954408;28;20435;-69
2022/10/19 03:02:57;;;;;;;4.10;1.70;;;11.60;99.90;;;11.62;86.06;102041.81;4948843;28;20446;-71
2022/10/19 03:05:26;;;;;;;3.47;1.57;;;11.50;99.90;;;11.51;86.13;102044.97;4949201;28;20432;-69
2022/10/19 03:07:55;;;;;;;5.20;2.27;;;11.50;99.90;;;11.51;86.90;102044.97;4954673;29;20512;-69
2022/10/19 03:10:24;;;;;;;9.10;2.47;;;11.40;99.90;;;11.52;86.85;102043.94;4957466;28;20800;-70
2022/10/19 03:12:52;;;;;;;6.50;1.73;;;11.50;99.90;;;11.50;86.00;102037.88;4957980;28;20855;-70
2022/10/19 03:15:23;;;;;;;3.03;1.53;;;11.40;99.90;;;11.56;86.17;102048.00;4959177;28;20433;-70
2022/10/19 03:17:53;;;;;;;1.50;1.20;;;11.50;99.90;;;11.44;85.29;102051.28;4941841;29;20440;-70
2022/10/19 03:20:23;;;;;;;4.47;1.50;;;11.40;99.90;;;11.48;85.21;102053.44;4951088;28;20456;-70
2022/10/19 03:22:52;;;;;;;9.50;2.17;;;11.40;99.90;;;11.46;85.34;102057.38;4948678;29;20965;-70
2022/10/19 03:25:26;;;;;;;1.83;1.13;;;11.40;99.90;;;11.48;85.39;102055.31;4954452;28;20974;-70
2022/10/19 03:27:54;;;;;;;7.70;1.50;;;11.40;99.90;;;11.46;85.22;102058.22;4954242;29;20802;-70
2022/10/19 03:30:23;;;;;;;2.30;1.37;;;11.40;99.90;;;11.51;85.01;102058.53;4953933;28;20543;-70
2022/10/19 03:32:51;;;;;;;5.53;1.53;;;11.40;99.90;;;11.43;85.11;102066.69;4960978;28;20435;-71
2022/10/19 03:35:22;;;;;;;1.20;0.90;;;11.40;99.90;;;11.36;84.88;102059.47;4958116;28;20459;-71
2022/10/19 03:37:50;;;;;;;3.43;1.00;;;11.30;99.90;;;11.42;84.02;102051.50;4959326;28;20781;-71
2022/10/19 03:40:19;;;;;;;2.27;1.17;;;11.30;99.90;;;11.35;83.88;102058.63;4957526;28;20431;-70
2022/10/19 03:42:48;;;;;;;4.83;1.13;;;11.30;19.00;;;11.43;83.90;102061.28;4946383;28;20471;-70
2022/10/19 03:45:16;;;;;;;2.80;0.70;;;11.30;40.80;;;11.42;83.08;102067.75;4967066;28;20455;-71
2022/10/19 03:47:49;;;;;;;4.13;1.00;;;11.30;1.00;;;11.36;82.78;102068.47;4971579;28;20596;-71
2022/10/19 03:50:20;;;;;;;2.47;0.93;;;11.30;1.00;;;11.36;83.13;102068.47;4958431;28;20468;-70
2022/10/19 03:52:49;;;;;;;5.80;2.00;;;11.30;1.00;;;11.47;82.69;102064.50;4956816;29;20431;-71
2022/10/19 03:55:18;;;;;;;3.43;1.00;;;11.30;1.00;;;11.41;83.17;102071.47;4964221;28;20459;-70
2022/10/19 03:57:47;;;;;;;2.53;1.10;;;11.40;1.00;;;11.39;83.99;102073.50;4957930;28;20441;-72
2022/10/19 04:00:16;;;;;;;1.33;0.70;;;11.30;1.00;;;11.43;83.97;102074.84;4955336;28;20801;-70
2022/10/19 04:02:44;;;;;;;3.80;1.30;;;11.40;16.30;;;11.52;84.04;102067.50;4958653;28;20488;-71
2022/10/19 04:05:13;;;;;;;5.10;1.30;;;11.40;97.50;;;11.54;84.53;102074.44;4954121;28;20542;-72
2022/10/19 04:07:42;;;;;;;2.50;1.30;;;11.40;99.90;;;11.44;85.12;102076.53;4958477;28;20510;-71
2022/10/19 04:10:12;;;;;;;3.53;1.40;;;11.40;99.90;;;11.54;84.28;102085.28;4970895;28;20688;-71
2022/10/19 04:12:40;;;;;;;2.53;1.10;;;11.50;99.60;;;11.56;86.29;102077.81;4957116;28;20410;-71
2022/10/19 04:15:10;;;;;;;1.30;0.87;;;11.50;99.90;;;11.45;85.76;102083.66;4953252;28;20460;-70
2022/10/19 04:17:38;;;;;;;2.13;1.13;;;11.40;99.90;;;11.44;85.91;102083.81;4963628;28;20466;-71
2022/10/19 04:20:09;;;;;;;1.70;1.20;;;11.40;99.90;;;11.42;87.52;102092.16;4970627;28;20421;-71
2022/10/19 04:22:37;;;;;;;8.90;1.57;;;11.40;99.90;;;11.46;86.08;102092.63;4957478;28;20464;-71
2022/10/19 04:25:09;;;;;;;3.30;1.63;;;11.40;99.90;;;11.50;85.66;102092.09;4954288;28;20463;-71
2022/10/19 04:27:39;;;;;;;7.20;1.50;;;11.40;99.90;;;11.52;86.23;102095.44;4963459;28;20435;-70
2022/10/19 04:30:08;;;;;;;6.23;3.40;;;11.40;99.90;;;11.56;85.78;102099.50;4954591;28;20421;-70
2022/10/19 04:32:37;;;;;;;4.07;1.50;;;11.50;99.90;;;11.47;85.24;102103.31;4958175;28;20427;-70
2022/10/19 04:35:07;;;;;;;5.33;1.50;;;11.40;99.90;;;11.49;85.16;102095.81;4952615;28;20892;-70
2022/10/19 04:37:36;;;;;;;2.70;2.40;;;11.40;99.90;;;11.38;84.43;102098.91;4955111;28;20432;-70
2022/10/19 04:40:06;;;;;;;9.20;1.67;;;11.30;99.90;;;11.32;85.35;102107.78;4958375;28;20491;-70
2022/10/19 04:42:43;;;;;;;4.13;1.97;;;11.30;99.90;;;11.42;85.40;102100.28;4951904;28;20470;-70
2022/10/19 04:45:12;;;;;;;3.83;1.60;;;11.30;99.90;;;11.35;85.65;102104.72;4960247;28;20452;-71
2022/10/19 04:47:40;;;;;;;3.20;1.17;;;11.30;99.90;;;11.42;84.80;102111.13;4954605;28;20968;-71
2022/10/19 04:50:10;;;;;;;2.70;1.47;;;11.30;99.90;;;11.34;84.85;102108.44;4949025;29;20420;-71
2022/10/19 04:52:38;;;;;;;1.50;1.33;;;11.30;99.90;;;11.41;84.36;102104.00;4937712;29;20490;-71
2022/10/19 04:55:08;;;;;;;3.93;1.63;;;11.30;99.90;;;11.31;84.38;102114.22;4934850;29;20467;-71
2022/10/19 04:57:36;;;;;;;2.43;1.23;;;11.20;77.10;;;11.45;85.30;102120.75;4941571;29;20487;-71
2022/10/19 05:00:08;;;;;;;1.73;1.50;;;11.30;99.90;;;11.36;85.12;102114.53;4956829;28;20815;-71
2022/10/19 05:02:37;;;;;;;3.30;1.20;;;11.30;99.90;;;11.43;84.11;102117.34;4953511;28;20893;-70
2022/10/19 05:05:07;;;;;;;4.83;1.43;;;11.30;98.70;;;11.41;83.62;102120.25;4952019;28;20446;-71
2022/10/19 05:07:36;;;;;;;6.63;1.10;;;11.40;1.00;;;11.34;83.84;102119.28;4952257;29;20410;-70
2022/10/19 05:10:05;;;;;;;4.00;1.70;;;11.30;1.00;;;11.35;83.83;102126.38;4957303;28;20435;-70
2022/10/19 05:12:36;;;;;;;8.07;2.10;;;11.30;1.00;;;11.27;84.33;102126.44;4952515;29;20912;-71
2022/10/19 05:15:07;;;;;;;3.67;1.20;;;11.20;13.30;;;11.33;84.58;102123.00;4952085;28;20551;-71
2022/10/19 05:17:36;;;;;;;8.03;1.33;;;11.20;54.70;;;11.30;84.00;102128.78;4954659;28;20439;-71
2022/10/19 05:20:06;;;;;;;4.10;1.43;;;11.20;1.00;;;11.20;85.17;102129.00;4964808;28;21135;-71
2022/10/19 05:22:35;;;;;;;1.97;1.30;;;11.20;99.90;;;11.08;87.41;102130.44;4965841;28;20437;-71
2022/10/19 05:25:04;;;;;;;9.00;1.23;;;11.10;99.90;;;11.19;87.40;102131.88;4959452;28;20846;-70
2022/10/19 05:27:33;;;;;;;2.30;1.33;;;11.10;99.90;;;11.18;87.90;102124.78;4942186;28;20941;-70
2022/10/19 05:30:02;;;;;;;4.70;1.33;;;11.10;1.00;;;11.07;87.65;102126.03;4945595;28;20945;-69
2022/10/19 05:32:32;;;;;;;3.40;1.20;;;11.00;99.90;;;10.90;88.51;102127.94;4974695;28;20441;-69
2022/10/19 05:35:01;;;;;;;2.90;1.77;;;10.90;1.00;;;10.72;90.24;102124.59;4950845;29;20434;-70
2022/10/19 05:37:29;;;;;;;6.30;1.10;;;10.80;1.00;;;10.73;90.86;102126.31;4951662;29;20436;-70
2022/10/19 05:39:58;;;;;;;3.20;1.10;;;10.70;61.20;;;10.74;91.29;102132.56;4953351;28;20523;-70
2022/10/19 05:42:27;;;;;;;2.30;0.97;;;10.70;99.90;;;10.67;91.55;102123.44;4966302;28;20442;-71
2022/10/19 05:44:56;;;;;;;10.13;1.90;;;10.70;1.00;;;10.69;91.46;102130.38;4946585;29;20456;-71
2022/10/19 05:47:24;;;;;;;2.20;1.23;;;10.60;1.00;;;10.74;91.20;102136.13;4938214;29;20677;-70
2022/10/19 05:49:59;;;;;;;2.63;1.77;;;10.70;1.00;;;10.86;90.72;102142.84;4934067;29;20822;-71
2022/10/19 05:52:29;;;;;;;4.63;2.60;;;10.70;99.90;;;10.86;89.61;102136.59;4947814;29;20420;-71
2022/10/19 05:54:57;;;;;;;7.87;2.20;;;10.80;1.00;;;10.86;90.16;102136.59;4954020;28;20423;-71
2022/10/19 05:57:26;;;;;;;4.87;1.40;;;10.80;1.00;;;10.92;89.62;102141.31;4942666;29;20439;-70
2022/10/19 05:59:57;;;;;;;2.17;1.00;;;10.80;1.00;;;11.00;89.37;102132.28;4963963;28;20432;-71
2022/10/19 06:02:25;;;;;;;6.70;1.40;;;10.90;1.00;;;11.02;89.17;102135.69;4960092;28;20427;-70
2022/10/19 06:04:54;;;;;;;5.33;1.97;;;10.90;1.00;;;11.14;89.54;102139.69;4970253;28;20551;-70
2022/10/19 06:07:24;;;;;;;3.90;1.13;;;11.00;1.00;;;11.17;88.20;102144.78;4970281;28;21033;-70
2022/10/19 06:09:53;;;;;;;8.33;1.90;;;11.10;1.00;;;11.34;88.30;102152.66;4961833;28;20442;-71
2022/10/19 06:12:21;;;;;;;1.60;0.90;;;11.10;1.00;;;11.17;87.67;102151.03;4937609;29;20430;-70
2022/10/19 06:14:52;;;;;;;6.00;1.13;;;11.10;1.00;;;11.18;88.16;102150.00;4954570;29;20434;-70
2022/10/19 06:17:21;;;;;;;4.83;1.17;;;11.10;1.00;;;11.27;88.32;102153.53;4984543;28;20417;-70
2022/10/19 06:19:49;;;;;;;4.57;1.50;;;11.10;1.00;;;11.48;88.47;102152.91;4969530;28;20469;-71
2022/10/19 06:22:18;;;;;;;1.50;1.30;;;11.30;1.00;;;11.56;86.16;102151.03;4961062;28;20434;-71
2022/10/19 06:24:48;;;;;;;4.20;1.90;;;11.40;99.90;;;11.49;85.79;102155.44;4943689;28;20458;-71
2022/10/19 06:27:16;;;;;;;10.50;1.37;;;11.40;99.90;;;11.30;86.72;102161.31;4955387;28;20882;-71
2022/10/19 06:29:45;;;;;;;3.37;1.13;;;11.30;99.90;;;11.34;86.83;102162.63;4954172;28;20782;-71
2022/10/19 06:32:14;;;;;;;4.60;1.13;;;11.30;99.90;;;11.22;87.21;102161.34;4954652;29;20796;-71
2022/10/19 06:34:42;;;;;;;1.50;1.00;;;11.20;99.90;;;11.29;87.43;102165.03;4953914;28;20485;-70
2022/10/19 06:37:11;;;;;;;4.13;2.20;;;11.20;99.90;;;11.40;87.50;102156.53;4920679;28;20469;-71
2022/10/19 06:39:40;;;;;;;6.57;1.43;;;11.30;1.00;;;11.51;87.57;102153.41;4955843;29;20488;-71
2022/10/19 06:42:10;;;;;;;4.17;1.13;;;11.30;1.00;;;11.66;87.26;102158.94;4959910;28;20503;-71
2022/10/19 06:44:38;;;;;;;3.17;1.20;;;11.40;1.00;;;11.48;87.23;102159.19;4943187;29;20468;-70
2022/10/19 06:47:07;;;;;;;3.87;1.23;;;11.40;99.90;;;11.38;88.25;102169.38;4950174;29;20449;-71
2022/10/19 06:49:36;;;;;;;3.70;1.63;;;11.40;1.00;;;11.55;88.02;102162.88;4965896;28;20443;-71
2022/10/19 06:52:06;;;;;;;2.50;1.43;;;11.40;1.00;;;11.66;86.86;102162.50;4940974;29;21031;-70
2022/10/19 06:54:35;;;;;;;3.30;1.00;;;11.50;1.00;;;11.69;87.57;102159.41;4941375;28;20638;-70
2022/10/19 06:57:04;;;;;;;4.33;1.57;;;11.50;1.00;;;11.88;87.67;102170.84;4944709;29;20847;-70
2022/10/19 06:59:34;;;;;;;4.00;1.40;;;11.60;1.00;;;12.01;86.27;102171.06;4960518;28;20819;-71
2022/10/19 07:02:02;;;;;;;2.70;0.90;;;11.80;99.90;;;12.00;86.10;102169.41;4953996;29;20439;-70
2022/10/19 07:04:31;;;;;;;2.43;1.80;;;11.80;99.90;;;11.77;85.82;102167.50;4953791;28;20555;-70
2022/10/19 07:07:00;;;;;;;3.33;1.07;;;11.70;99.90;;;11.90;86.08;102174.22;4953251;28;20850;-70
2022/10/19 07:09:29;;;;;;;6.80;1.73;;;11.80;99.90;;;11.84;85.87;102173.06;4964752;28;20461;-71
2022/10/19 07:11:58;;;;;;;14.80;1.50;;;11.70;99.90;;;11.84;86.53;102175.78;4954334;29;20965;-71
2022/10/19 07:14:27;;;;;;;5.53;1.73;;;11.70;99.90;;;12.00;85.64;102181.13;4943542;28;20406;-70
2022/10/19 07:16:57;;;;;;;4.63;2.03;;;11.80;99.90;;;12.23;85.50;102186.53;4961797;28;20437;-70
2022/10/19 07:19:27;;;;;;;6.97;1.10;;;11.90;99.90;;;12.29;84.11;102180.38;4953812;29;20458;-71
2022/10/19 07:21:55;;;;;;;5.97;1.57;;;12.00;99.90;;;12.10;84.09;102192.53;4935037;29;20870;-70
2022/10/19 07:24:24;;;;;;;4.53;2.50;;;11.90;99.90;;;12.19;84.12;102199.63;4933625;28;21009;-71
2022/10/19 07:26:53;;;;;;;1.37;0.93;;;12.00;99.90;;;11.94;84.13;102191.84;4953173;29;20816;-71
2022/10/19 07:29:22;;;;;;;1.47;1.00;;;11.90;19.10;;;12.07;84.36;102213.78;4954073;29;20410;-71
2022/10/19 07:31:51;;;;;;;3.87;1.10;;;12.00;97.70;;;11.94;84.23;102208.09;4955958;29;20505;-71
2022/10/19 07:34:21;;;;;;;3.30;1.40;;;11.90;41.30;;;12.11;84.15;102215.09;4956958;28;20429;-72
2022/10/19 07:36:57;;;;;;;2.70;1.53;;;11.90;99.90;;;12.02;83.83;102216.19;4956045;28;20869;-70
2022/10/19 07:39:27;;;;;;;5.40;1.70;;;11.90;28.80;;;12.25;83.78;102210.78;4958699;29;20410;-71
2022/10/19 07:41:55;;;;;;;6.00;1.13;;;12.00;51.10;;;12.16;83.43;102212.69;4957110;29;20403;-71
2022/10/19 07:44:24;;;;;;;9.43;2.10;;;12.00;1.00;;;12.39;82.39;102216.25;4966573;28;20437;-71
2022/10/19 07:46:53;;;;;;;5.00;2.40;;;12.20;1.00;;;12.33;82.32;102213.44;4969507;28;20423;-71
2022/10/19 07:49:22;;;;;;;1.67;1.00;;;12.20;1.00;;;12.06;83.17;102217.50;4954450;29;20448;-70
2022/10/19 07:51:52;;;;;;;6.17;1.70;;;12.00;1.00;;;12.19;82.73;102215.91;4953477;29;20431;-70
2022/10/19 07:54:23;;;;;;;8.53;2.10;;;12.00;1.00;;;12.15;82.68;102221.88;4953563;28;20420;-70
2022/10/19 07:56:52;;;;;;;2.60;1.17;;;12.00;1.00;;;12.08;83.03;102221.75;4972718;28;20461;-70
2022/10/19 07:59:20;;;;;;;2.80;1.13;;;12.00;1.00;;;12.24;83.10;102225.38;4953470;29;20466;-70
2022/10/19 08:01:49;;;;;;;8.77;1.40;;;12.00;1.00;;;12.33;82.67;102227.84;4957602;28;20414;-71
2022/10/19 08:04:18;;;;;;;5.33;1.13;;;12.20;1.00;;;12.30;82.71;102230.91;4952765;29;20463;-70
2022/10/19 08:07:08;;;;;;;3.33;1.73;;;12.20;1.00;;;11.97;85.45;102240.28;4953570;28;20447;-71
2022/10/19 08:09:37;;;;;;;2.67;1.50;;;12.00;62.10;;;11.94;87.67;102229.81;4953705;28;20453;-70
2022/10/19 08:12:22;;;;;;;2.60;1.10;;;11.90;99.90;;;12.03;88.23;102226.03;4935176;29;20501;-71
2022/10/19 08:14:50;;;;;;;2.67;1.10;;;12.00;99.90;;;12.44;87.94;102238.25;4952709;29;20455;-70
2022/10/19 08:17:19;;;;;;;2.60;1.40;;;12.20;99.90;;;12.41;86.34;102233.22;4954204;28;20438;-71
2022/10/19 08:19:48;;;;;;;6.20;1.53;;;12.20;99.90;;;12.33;84.89;102230.56;4958369;28;20510;-70
2022/10/19 08:22:18;;;;;;;7.73;1.47;;;12.20;99.90;;;12.52;84.55;102226.50;4956318;28;20441;-70
2022/10/19 08:24:46;;;;;;;1.70;1.20;;;12.30;99.90;;;12.50;83.62;102236.69;4970998;28;20478;-71
2022/10/19 08:27:15;;;;;;;2.70;2.37;;;12.40;99.90;;;12.49;83.60;102241.28;4955753;28;20955;-70
2022/10/19 08:29:44;;;;;;;3.27;1.33;;;12.40;99.90;;;12.68;83.07;102239.94;4928972;29;20722;-70
2022/10/19 08:32:12;;;;;;;1.83;1.00;;;12.40;99.90;;;12.81;82.44;102245.59;4956772;28;20459;-70
2022/10/19 08:34:41;;;;;;;7.63;1.40;;;12.50;99.90;;;12.84;80.58;102245.22;4956922;28;20435;-70
2022/10/19 08:37:10;;;;;;;3.17;1.27;;;12.60;99.90;;;12.87;80.07;102239.44;4967607;28;20447;-70
2022/10/19 08:40:00;;;;;;;5.77;2.33;;;12.70;99.90;;;12.84;79.96;102241.66;4954016;28;20935;-71
2022/10/19 08:42:46;;;;;;;5.13;1.43;;;12.70;99.90;;;12.92;80.57;102244.31;4953281;28;20439;-70
2022/10/19 08:45:51;;;;;;;4.30;1.40;;;12.70;99.90;;;13.10;78.26;102244.78;4954415;28;20486;-71
2022/10/19 08:48:27;;;;;;;5.80;2.30;;;12.90;99.90;;;13.31;77.09;102253.06;4958991;28;20434;-70
2022/10/19 08:50:59;;;;;;;6.00;1.50;;;13.00;99.90;;;13.27;76.21;102251.75;4966978;28;20438;-71
2022/10/19 08:53:40;;;;;;;7.20;2.00;;;13.10;99.90;;;12.96;78.08;102248.34;4956816;28;20991;-71
2022/10/19 08:56:28;;;;;;;4.60;1.83;;;12.90;99.90;;;13.16;78.03;102249.53;4946376;28;21065;-71
2022/10/19 08:59:31;;;;;;;3.20;2.43;;;13.00;99.90;;;13.36;75.34;102250.63;4958160;28;20974;-70
2022/10/19 09:02:10;;;;;;;5.03;1.10;;;13.20;99.90;;;13.42;75.84;102244.44;4953085;28;20432;-71
2022/10/19 09:04:42;;;;;;;6.40;1.93;;;13.20;99.90;;;13.86;74.11;102240.81;4951206;28;20480;-71
2022/10/19 09:07:26;;;;;;;2.83;0.90;;;13.50;99.90;;;13.28;75.11;102247.16;4952206;29;20686;-70
2022/10/19 09:10:01;;;;;;;9.20;4.33;;;13.30;99.90;;;13.38;75.01;102243.16;4953777;28;20547;-71
2022/10/19 09:12:42;;;;;;;3.37;1.90;;;13.30;99.90;;;13.40;75.96;102254.69;4952234;29;20452;-72
2022/10/19 09:15:18;;;;;;;1.37;1.00;;;13.30;99.90;;;13.43;74.27;102254.31;4950702;29;20467;-72
2022/10/19 09:17:47;;;;;;;8.00;1.40;;;13.30;99.90;;;13.35;74.42;102254.41;4966553;28;20845;-73
2022/10/19 09:20:20;;;;;;;7.23;1.70;;;13.20;99.90;;;13.19;74.73;102262.72;4952796;28;20830;-72
2022/10/19 09:23:00;;;;;;;14.33;8.20;;;13.20;99.90;;;13.25;73.41;102259.28;4952560;29;20415;-71
2022/10/19 09:25:33;;;;;;;5.63;1.33;;;13.20;99.90;;;13.22;73.04;102262.34;4952262;28;20823;-72
2022/10/19 09:28:21;;;;;;;4.23;1.40;;;13.20;99.90;;;13.27;72.02;102261.78;4952715;28;20819;-71
2022/10/19 09:30:59;;;;;;;4.70;1.27;;;13.10;99.90;;;13.19;72.10;102273.59;4954471;28;20409;-72
2022/10/19 09:33:36;;;;;;;15.10;13.27;;;13.10;99.90;;;13.36;72.42;102266.94;4948590;29;20777;-73
2022/10/19 09:36:07;;;;;;;7.67;4.80;;;13.20;99.90;;;13.41;70.96;102269.94;4952577;28;20872;-73
2022/10/19 09:38:39;;;;;;;29.40;26.07;;;13.20;99.90;;;13.79;70.16;102275.28;4966825;28;20943;-71
2022/10/19 09:41:21;;;;;;;6.40;3.93;;;13.50;99.90;;;13.79;67.11;102273.41;4954022;28;20539;-71
2022/10/19 09:43:55;;;;;;;24.13;14.57;;;13.60;95.70;;;13.96;67.15;102274.03;4953954;28;20425;-71
2022/10/19 09:46:51;;;;;;;11.93;10.90;;;13.70;95.10;;;13.71;65.99;102275.38;4953613;28;20893;-72
2022/10/19 09:49:41;;;;;;;6.03;4.90;;;13.60;92.20;;;13.54;67.61;102269.31;4953169;28;20845;-72
2022/10/19 09:52:32;;;;;;;5.37;4.03;;;13.50;93.00;;;13.60;67.99;102284.03;4946475;29;20465;-71
2022/10/19 09:55:05;;;;;;;10.07;3.47;;;13.40;94.10;;;13.60;67.93;102294.91;4949377;28;20426;-70
2022/10/19 09:57:42;;;;;;;13.63;6.93;;;13.40;94.40;;;13.57;67.56;102287.97;4950789;28;20439;-71
2022/10/19 10:00:22;;;;;;;7.67;3.00;;;13.40;94.20;;;13.76;67.24;102294.69;4951372;29;20840;-71
2022/10/19 10:02:53;;;;;;;3.17;2.23;;;13.50;93.60;;;13.82;64.96;102283.06;4966203;28;20426;-72
2022/10/19 10:05:33;;;;;;;1.30;0.93;;;13.60;90.20;;;13.93;64.69;102283.44;4989241;22;20489;-70
2022/10/19 10:08:04;;;;;;;2.17;0.87;;;13.70;89.20;;;13.78;63.28;102281.75;4993273;28;20418;-69
2022/10/19 10:10:42;;;;;;;6.93;2.97;;;13.70;80.60;;;13.77;63.85;102280.06;4992411;28;20455;-69
2022/10/19 10:13:17;;;;;;;5.17;3.10;;;13.70;82.10;;;13.54;62.27;102290.22;4992686;28;20408;-70
2022/10/19 10:15:56;;;;;;;1.77;1.27;;;13.50;72.40;;;13.36;62.69;102277.81;4983100;28;20409;-69
2022/10/19 10:21:01;;;;;;;6.70;5.50;;;13.20;56.20;;;13.41;57.43;102278.09;4972423;28;20496;-70
2022/10/19 10:23:36;;;;;;;8.97;5.83;;;13.20;50.90;;;13.67;56.95;102279.50;4970342;28;20934;-71
2022/10/19 10:26:18;;;;;;;4.37;1.43;;;13.40;49.00;;;13.83;57.01;102282.88;4989269;28;20526;-72
2022/10/19 10:28:51;;;;;;;1.70;0.70;;;13.60;47.60;;;14.24;56.46;102285.88;4998017;28;20466;-69
2022/10/19 10:31:28;;;;;;;5.97;4.10;;;13.90;46.80;;;14.56;54.54;102281.84;4989634;28;20421;-69
2022/10/19 10:34:01;;;;;;;6.30;4.40;;;14.20;42.80;;;14.71;53.76;102292.69;4958286;28;20447;-69
2022/10/19 10:36:54;;;;;;;12.10;7.37;;;14.40;38.40;;;14.52;53.07;102285.16;4952442;28;20434;-70
2022/10/19 10:39:27;;;;;;;2.20;1.10;;;14.40;33.80;;;14.78;52.32;102293.56;4969668;28;20435;-73